This is the latest recevied weather packets stored in our database for station/object PA2JOK. If no packets are shown the sender has not sent any weather packets the latest 10 day(s).
| Time | Temp. | Humidity | Pressure | Rain* | Wind** | Luminosity | Snow |
|---|---|---|---|---|---|---|---|
| 1778176083 | 14.44° C | 49% | 1015.8 hPa | 0 mm | - | - | - |
| 1778175183 | 14.44° C | 47% | 1015.8 hPa | 0 mm | - | - | - |
| 1778174283 | 14.44° C | 47% | 1015.8 hPa | 0 mm | - | - | - |
| 1778173383 | 15.56° C | 45% | 1015.8 hPa | 0 mm | - | - | - |
| 1778172483 | 15° C | 44% | 1015.7 hPa | 0 mm | - | - | - |
| 1778171582 | 15° C | 44% | 1015.8 hPa | 0 mm | - | - | - |
| 1778170683 | 15.56° C | 45% | 1015.7 hPa | 0 mm | - | - | - |
| 1778169782 | 16.11° C | 44% | 1015.7 hPa | 0 mm | - | - | - |
| 1778168883 | 16.11° C | 43% | 1015.6 hPa | 0 mm | - | - | - |
| 1778167983 | 15.56° C | 43% | 1015.6 hPa | 0 mm | - | - | - |
| 1778167083 | 15.56° C | 43% | 1015.6 hPa | 0 mm | - | - | - |
| 1778166183 | 15.56° C | 43% | 1015.6 hPa | 0 mm | - | - | - |
| 1778165283 | 15.56° C | 42% | 1015.6 hPa | 0 mm | - | - | - |
| 1778164382 | 15.56° C | 41% | 1015.8 hPa | 0 mm | - | - | - |
| 1778163483 | 15° C | 42% | 1015.7 hPa | 0 mm | - | - | - |
| 1778162583 | 15° C | 44% | 1015.7 hPa | 0 mm | - | - | - |
| 1778161683 | 15° C | 44% | 1015.8 hPa | 0 mm | - | - | - |
| 1778160784 | 15° C | 45% | 1015.9 hPa | 0 mm | - | - | - |
| 1778159883 | 16.11° C | 44% | 1015.8 hPa | 0 mm | - | - | - |
| 1778158983 | 15.56° C | 44% | 1015.8 hPa | 0 mm | - | - | - |
| 1778158083 | 15.56° C | 45% | 1015.8 hPa | 0 mm | - | - | - |
| 1778157183 | 15° C | 47% | 1015.7 hPa | 0 mm | - | - | - |
| 1778156283 | 16.11° C | 44% | 1016 hPa | 0 mm | - | - | - |
| 1778155383 | 17.22° C | 42% | 1015.9 hPa | 0 mm | - | - | - |
| 1778154483 | 16.11° C | 44% | 1015.9 hPa | 0 mm | - | - | - |
* Rain latest hour (hover to see other rain measurements)
** Current wind speed in m/s (hover to see current wind gust speed)